createdAt,value
2023-04-16T00:01:17.397Z,11.90
2023-04-16T00:03:48.979Z,16.10
2023-04-16T00:06:20.487Z,15.00
2023-04-16T00:08:51.771Z,13.50
2023-04-16T00:11:22.769Z,13.90
2023-04-16T00:13:51.290Z,15.00
2023-04-16T00:16:21.961Z,14.00
2023-04-16T00:18:53.107Z,12.60
2023-04-16T00:21:24.244Z,15.00
2023-04-16T00:23:55.371Z,12.50
2023-04-16T00:26:26.170Z,13.00
2023-04-16T00:28:58.085Z,11.40
2023-04-16T00:31:31.963Z,13.90
2023-04-16T00:34:03.032Z,13.40
2023-04-16T00:36:34.093Z,11.60
2023-04-16T00:39:03.773Z,11.40
2023-04-16T00:41:34.620Z,11.80
2023-04-16T00:44:05.669Z,13.20
2023-04-16T00:46:38.073Z,12.80
2023-04-16T00:49:10.715Z,12.00
2023-04-16T00:51:42.153Z,12.40
2023-04-16T00:54:13.096Z,13.10
2023-04-16T00:56:45.082Z,13.00
2023-04-16T00:59:14.717Z,11.40
2023-04-16T01:01:46.054Z,12.70
2023-04-16T01:04:17.304Z,13.30
2023-04-16T01:06:48.674Z,12.20
2023-04-16T01:09:19.773Z,12.80
2023-04-16T01:11:50.777Z,12.80
2023-04-16T01:14:21.877Z,12.40
2023-04-16T01:16:52.848Z,13.80
2023-04-16T01:19:23.585Z,12.20
2023-04-16T01:21:56.296Z,12.90
2023-04-16T01:24:27.360Z,13.40
2023-04-16T01:26:59.703Z,12.10
2023-04-16T01:29:30.579Z,11.90
2023-04-16T01:32:02.332Z,12.50
2023-04-16T01:34:37.254Z,11.90
2023-04-16T01:37:08.984Z,12.70
2023-04-16T01:39:40.140Z,13.50
2023-04-16T01:42:11.628Z,10.70
2023-04-16T01:44:42.876Z,9.60
2023-04-16T01:47:14.118Z,10.60
2023-04-16T01:49:45.816Z,14.00
2023-04-16T01:52:16.899Z,10.30
2023-04-16T01:54:48.064Z,10.20
2023-04-16T01:57:19.226Z,9.60
2023-04-16T01:59:49.057Z,10.50
2023-04-16T02:02:20.983Z,9.50
2023-04-16T02:04:51.902Z,9.80
2023-04-16T02:07:24.526Z,10.90
2023-04-16T02:09:55.818Z,10.40
2023-04-16T02:12:27.433Z,8.90
2023-04-16T02:14:58.306Z,10.30
2023-04-16T02:17:31.192Z,8.60
2023-04-16T02:20:11.504Z,8.40
2023-04-16T02:22:47.150Z,8.90
2023-04-16T02:25:19.774Z,7.30
2023-04-16T02:27:50.852Z,9.30
2023-04-16T02:30:35.122Z,7.70
2023-04-16T02:33:09.514Z,8.50
2023-04-16T02:35:41.709Z,8.40
2023-04-16T02:38:13.946Z,8.60
2023-04-16T02:40:44.810Z,9.00
2023-04-16T02:43:15.822Z,8.30
2023-04-16T02:45:46.995Z,7.20
2023-04-16T02:48:18.335Z,8.10
2023-04-16T02:50:49.672Z,6.20
2023-04-16T02:53:21.604Z,9.10
2023-04-16T02:55:56.324Z,8.10
2023-04-16T02:58:27.675Z,8.50
2023-04-16T03:00:58.460Z,7.60
2023-04-16T03:03:29.472Z,7.30
2023-04-16T03:06:00.412Z,7.70
2023-04-16T03:08:31.396Z,7.40
2023-04-16T03:11:02.156Z,7.60
2023-04-16T03:13:33.132Z,10.30
2023-04-16T03:16:03.961Z,6.80
2023-04-16T03:18:34.887Z,7.40
2023-04-16T03:21:06.404Z,7.70
2023-04-16T03:23:37.351Z,7.40
2023-04-16T03:26:08.862Z,8.10
2023-04-16T03:28:39.810Z,6.10
2023-04-16T03:31:12.627Z,7.00
2023-04-16T03:33:43.924Z,5.80
2023-04-16T03:36:15.580Z,7.20
2023-04-16T03:38:46.664Z,6.30
2023-04-16T03:41:18.251Z,7.20
2023-04-16T03:43:49.608Z,4.90
2023-04-16T03:46:20.589Z,5.80
2023-04-16T03:48:51.434Z,5.90
2023-04-16T03:51:23.135Z,7.20
2023-04-16T03:53:54.419Z,5.10
2023-04-16T03:56:27.185Z,5.00
2023-04-16T03:58:55.506Z,6.50
2023-04-16T04:01:24.820Z,6.60
2023-04-16T04:03:56.119Z,5.60
2023-04-16T04:06:27.618Z,4.10
2023-04-16T04:08:59.497Z,5.30
2023-04-16T04:11:30.334Z,4.60
2023-04-16T04:14:01.424Z,6.30
2023-04-16T04:16:33.646Z,6.80
2023-04-16T04:19:05.821Z,5.30
2023-04-16T04:21:36.784Z,5.80
2023-04-16T04:24:08.361Z,4.60
2023-04-16T04:26:39.669Z,5.20
2023-04-16T04:29:10.898Z,4.70
2023-04-16T04:31:42.433Z,5.10
2023-04-16T04:34:14.004Z,5.20
2023-04-16T04:36:44.989Z,5.30
2023-04-16T04:39:13.676Z,5.00
2023-04-16T04:41:42.991Z,4.90
2023-04-16T04:44:12.862Z,5.40
2023-04-16T04:46:42.290Z,5.50
2023-04-16T04:49:10.991Z,5.90
2023-04-16T04:51:39.456Z,5.80
2023-04-16T04:54:07.625Z,6.60
2023-04-16T04:56:35.765Z,6.30
2023-04-16T04:59:03.882Z,4.30
2023-04-16T05:01:32.035Z,6.10
2023-04-16T05:04:00.122Z,6.60
2023-04-16T05:06:29.681Z,7.50
2023-04-16T05:08:57.906Z,6.50
2023-04-16T05:11:26.039Z,4.90
2023-04-16T05:13:54.250Z,5.40
2023-04-16T05:16:22.366Z,5.20
2023-04-16T05:19:10.623Z,4.70
2023-04-16T05:21:39.591Z,5.40
2023-04-16T05:24:07.712Z,4.60
2023-04-16T05:26:35.943Z,5.10
2023-04-16T05:29:04.687Z,7.20
2023-04-16T05:31:33.344Z,4.30
2023-04-16T05:34:01.498Z,5.30
2023-04-16T05:36:33.387Z,4.80
2023-04-16T05:39:01.388Z,4.50
2023-04-16T05:41:29.736Z,4.30
2023-04-16T05:46:27.176Z,5.10
2023-04-16T05:48:55.378Z,3.80
2023-04-16T05:51:25.664Z,4.20
2023-04-16T05:53:55.050Z,5.00
2023-04-16T05:56:23.596Z,5.70
2023-04-16T05:58:52.482Z,5.40
2023-04-16T06:01:22.139Z,4.00
2023-04-16T06:03:50.504Z,4.30
2023-04-16T06:12:35.660Z,4.30
2023-04-16T06:15:05.033Z,6.50
2023-04-16T06:17:33.108Z,5.10
2023-04-16T06:20:01.323Z,5.40
2023-04-16T06:22:29.903Z,5.40
2023-04-16T06:24:58.175Z,6.20
2023-04-16T06:27:27.891Z,5.00
2023-04-16T06:29:57.823Z,4.20
2023-04-16T06:32:26.326Z,3.60
2023-04-16T06:34:56.924Z,5.50
2023-04-16T06:37:25.054Z,7.90
2023-04-16T06:39:53.262Z,8.40
2023-04-16T06:42:27.029Z,6.90
2023-04-16T06:44:55.119Z,7.70
2023-04-16T06:47:23.696Z,6.80
2023-04-16T06:49:51.964Z,7.50
2023-04-16T06:54:49.586Z,10.00
2023-04-16T06:59:45.916Z,5.90
2023-04-16T07:02:14.088Z,8.80
2023-04-16T07:07:10.307Z,9.30
2023-04-16T07:09:38.341Z,8.90
2023-04-16T07:12:07.366Z,5.50
2023-04-16T07:14:36.279Z,9.30
2023-04-16T07:17:05.638Z,7.40
2023-04-16T07:19:33.875Z,7.60
2023-04-16T07:22:02.094Z,7.80
2023-04-16T07:24:30.648Z,5.70
2023-04-16T07:26:58.818Z,7.40
2023-04-16T07:29:26.931Z,8.60
2023-04-16T07:31:55.106Z,7.10
2023-04-16T07:34:24.016Z,10.00
2023-04-16T07:36:52.208Z,8.30
2023-04-16T07:39:21.819Z,12.70
2023-04-16T07:41:50.084Z,15.50
2023-04-16T07:44:18.271Z,12.70
2023-04-16T07:46:47.629Z,10.50
2023-04-16T07:49:16.437Z,9.30
2023-04-16T07:51:44.690Z,10.20
2023-04-16T07:54:14.056Z,12.20
2023-04-16T07:56:44.097Z,11.50
2023-04-16T07:59:21.907Z,8.30
2023-04-16T08:01:54.155Z,8.60
2023-04-16T08:04:26.370Z,9.30
2023-04-16T08:06:55.025Z,16.40
2023-04-16T08:09:28.699Z,10.80
2023-04-16T08:12:01.060Z,12.90
2023-04-16T08:14:29.207Z,14.80
2023-04-16T08:16:57.332Z,10.40
2023-04-16T08:19:25.451Z,9.00
2023-04-16T08:21:53.579Z,11.30
2023-04-16T08:24:21.754Z,9.70
2023-04-16T08:26:49.747Z,13.00
2023-04-16T08:29:17.957Z,12.40
2023-04-16T08:31:47.748Z,10.50
2023-04-16T08:34:17.432Z,11.80
2023-04-16T08:36:46.707Z,10.20
2023-04-16T08:39:14.859Z,13.70
2023-04-16T08:41:46.278Z,10.40
2023-04-16T08:44:26.081Z,10.80
2023-04-16T08:46:59.323Z,17.70
2023-04-16T08:49:28.312Z,12.90
2023-04-16T08:51:57.604Z,12.30
2023-04-16T08:55:02.715Z,11.20
2023-04-16T08:57:49.718Z,13.40
2023-04-16T09:00:19.584Z,9.20
2023-04-16T09:02:49.289Z,12.80
2023-04-16T09:05:21.362Z,12.50
2023-04-16T09:07:49.610Z,13.10
2023-04-16T09:10:21.930Z,8.80
2023-04-16T09:12:50.117Z,10.50
2023-04-16T09:15:21.414Z,11.10
2023-04-16T09:17:49.829Z,11.80
2023-04-16T09:20:18.891Z,9.00
2023-04-16T09:22:47.143Z,9.60
2023-04-16T09:27:50.954Z,11.50
2023-04-16T09:30:26.271Z,13.50
2023-04-16T09:33:23.473Z,9.90
2023-04-16T09:35:53.302Z,8.30
2023-04-16T09:38:21.748Z,10.20
2023-04-16T09:41:07.684Z,8.60
2023-04-16T09:43:36.598Z,8.40
2023-04-16T09:46:08.054Z,9.70
2023-04-16T09:48:36.759Z,8.00
2023-04-16T09:53:48.399Z,10.90
2023-04-16T09:56:16.772Z,10.80
2023-04-16T10:01:16.579Z,9.80
2023-04-16T10:03:49.834Z,6.20
2023-04-16T10:06:21.208Z,6.70
2023-04-16T10:08:51.602Z,9.50
2023-04-16T10:11:21.562Z,11.00
2023-04-16T10:13:51.102Z,9.80
2023-04-16T10:16:19.304Z,8.90
2023-04-16T10:21:17.478Z,10.70
2023-04-16T10:23:49.239Z,9.10
2023-04-16T10:26:21.400Z,12.50
2023-04-16T10:28:50.238Z,10.20
2023-04-16T10:31:18.803Z,7.90
2023-04-16T10:33:48.040Z,8.10
2023-04-16T10:36:26.163Z,9.20
2023-04-16T10:38:59.916Z,10.90
2023-04-16T10:41:28.679Z,8.90
2023-04-16T10:44:10.098Z,10.00
2023-04-16T10:46:49.482Z,7.50
2023-04-16T10:49:24.900Z,8.30
2023-04-16T10:52:00.405Z,9.90
2023-04-16T10:54:31.069Z,11.70
2023-04-16T10:57:04.548Z,11.10
2023-04-16T10:59:35.382Z,10.70
2023-04-16T11:02:11.410Z,8.90
2023-04-16T11:04:46.049Z,8.40
2023-04-16T11:07:21.958Z,8.30
2023-04-16T11:09:55.067Z,8.40
2023-04-16T11:12:29.286Z,10.40
2023-04-16T11:15:02.996Z,8.80
2023-04-16T11:17:47.069Z,9.30
2023-04-16T11:20:19.808Z,13.60
2023-04-16T11:22:50.938Z,10.80
2023-04-16T11:28:37.179Z,9.10
2023-04-16T11:31:12.895Z,11.00
2023-04-16T11:33:45.887Z,12.10
2023-04-16T11:36:16.800Z,10.40
2023-04-16T11:38:47.343Z,8.60
2023-04-16T11:41:23.201Z,9.80
2023-04-16T11:43:53.290Z,13.00
2023-04-16T11:46:27.307Z,10.00
2023-04-16T11:48:56.951Z,9.90
2023-04-16T11:51:32.779Z,9.60
2023-04-16T11:57:31.154Z,9.30
2023-04-16T12:00:03.982Z,12.40
2023-04-16T12:02:47.122Z,16.00
2023-04-16T12:05:39.778Z,18.80
2023-04-16T12:08:12.843Z,14.50
2023-04-16T12:10:55.026Z,9.20
2023-04-16T12:13:24.184Z,11.30
2023-04-16T12:15:56.364Z,13.20
2023-04-16T12:18:29.654Z,9.40
2023-04-16T12:20:58.139Z,12.40
2023-04-16T12:23:33.061Z,11.80
2023-04-16T12:26:12.602Z,12.40
2023-04-16T12:28:41.807Z,14.00
2023-04-16T12:31:11.758Z,13.30
2023-04-16T12:33:45.553Z,12.30
2023-04-16T12:36:20.162Z,11.80
2023-04-16T12:38:48.421Z,12.00
2023-04-16T12:44:34.246Z,13.80
2023-04-16T12:47:06.197Z,14.50
2023-04-16T12:49:40.042Z,9.30
2023-04-16T12:52:09.565Z,11.30
2023-04-16T12:54:48.474Z,16.50
2023-04-16T12:57:18.411Z,14.00
2023-04-16T12:59:50.605Z,12.20
2023-04-16T13:02:20.504Z,12.00
2023-04-16T13:05:07.943Z,14.40
2023-04-16T13:07:37.626Z,13.40
2023-04-16T13:10:08.780Z,11.50
2023-04-16T13:12:41.987Z,13.50
2023-04-16T13:15:14.310Z,11.70
2023-04-16T13:17:42.872Z,12.70
2023-04-16T13:20:13.239Z,10.80
2023-04-16T13:22:42.641Z,11.60
2023-04-16T13:25:12.109Z,10.70
2023-04-16T13:30:12.734Z,13.40
2023-04-16T13:32:41.320Z,10.40
2023-04-16T13:37:59.352Z,11.30
2023-04-16T13:44:09.232Z,12.20
2023-04-16T14:02:48.953Z,8.70
2023-04-16T14:05:57.746Z,9.20
2023-04-16T14:17:01.030Z,7.80
2023-04-16T14:27:51.466Z,5.50
2023-04-16T14:30:41.538Z,6.30
2023-04-16T14:41:52.794Z,5.90
2023-04-16T14:48:40.200Z,6.10
2023-04-16T14:59:34.323Z,6.40
2023-04-16T15:06:23.311Z,3.90
2023-04-16T15:09:22.639Z,3.10
2023-04-16T15:20:27.339Z,5.20
2023-04-16T15:31:25.289Z,3.90
2023-04-16T15:42:13.271Z,4.10
2023-04-16T15:57:30.797Z,3.80
2023-04-16T16:00:35.967Z,3.30
2023-04-16T16:07:22.383Z,5.70
2023-04-16T16:10:16.417Z,3.40
2023-04-16T16:28:06.629Z,3.70
2023-04-16T16:43:23.346Z,3.80
2023-04-16T16:46:22.125Z,4.00
2023-04-16T16:53:08.282Z,3.70
2023-04-16T16:56:17.478Z,5.00
2023-04-16T17:03:04.278Z,6.80
2023-04-16T17:10:23.614Z,5.30
2023-04-16T17:21:28.804Z,7.20
2023-04-16T17:24:40.807Z,7.60
2023-04-16T17:31:29.690Z,5.80
2023-04-16T17:34:19.684Z,5.80
2023-04-16T17:41:05.809Z,9.30
2023-04-16T17:47:53.980Z,7.30
2023-04-16T17:58:55.339Z,6.60
2023-04-16T18:06:08.921Z,5.20
2023-04-16T18:13:00.057Z,6.00
2023-04-16T18:16:20.951Z,5.10
2023-04-16T18:31:42.548Z,9.80
